Jalma Topic — A8IQ6 — position and weather

sailwx.info

Track history (hours):
 
Tides and Currents Weather Stations Pressure Air Temp Water Temp Dewpoint Dewpoint Depression Visibility Wind Speed Wind Dir Waves Ship Positions

Jalma Topic

Last reported at 2017-Dec-17 20:07 UTC. Time now 2018-Feb-22 11:11 UTC.
Position N 01°18' E 103°21'.
Warning: this ship's position is months out of date.

Length 183 m; draft 12 m.

Type: Cargo ship. MMSI: 636012871.

Date/timePositionNaut miles runAvg speedWind from/ knotsBaromVisibWave heightAir tempDewpointWater temp
2017-Dec-17 20:07N 01°18' E 103°21'513.7
2017-Dec-17 19:46N 01°15' E 103°24'313.2
2017-Dec-17 19:30N 01°13' E 103°27'612.9
2017-Dec-17 19:00N 01°12' E 103°34'612.8
2017-Dec-17 18:31N 01°10' E 103°40'611.3
2017-Dec-17 18:00N 01°09' E 103°45'713.8
2017-Dec-17 17:30N 01°12' E 103°52'712.4
2017-Dec-17 16:54N 01°15' E 103°59'3 0.4
2017-Dec-17 10:04N 01°17' E 104°00'0 0.8
2017-Dec-17 09:59N 01°17' E 104°00'1 1.8
2017-Dec-17 09:30N 01°16' E 103°60'1 2.0
2017-Dec-17 09:00N 01°16' E 103°59'2 3.0
2017-Dec-17 08:30N 01°15' E 104°00'5 8.9
2017-Dec-17 07:58N 01°16' E 104°05'  
Track history (hours):
 
Tides and Currents Weather Stations Pressure Air Temp Water Temp Dewpoint Dewpoint Depression Visibility Wind Speed Wind Dir Waves Ship Positions

Jalma Topic

Last reported at 2017-Dec-17 20:07 UTC. Time now 2018-Feb-22 11:11 UTC.
Position N 01°18' E 103°21'.
Warning: this ship's position is months out of date.

Length 183 m; draft 12 m.

Type: Cargo ship. MMSI: 636012871.

Date/timePositionNaut miles runAvg speedWind from/ knotsBaromVisibWave heightAir tempDewpointWater temp
2017-Dec-17 20:07N 01°18' E 103°21'513.7
2017-Dec-17 19:46N 01°15' E 103°24'313.2
2017-Dec-17 19:30N 01°13' E 103°27'612.9
2017-Dec-17 19:00N 01°12' E 103°34'612.8
2017-Dec-17 18:31N 01°10' E 103°40'611.3
2017-Dec-17 18:00N 01°09' E 103°45'713.8
2017-Dec-17 17:30N 01°12' E 103°52'712.4
2017-Dec-17 16:54N 01°15' E 103°59'3 0.4
2017-Dec-17 10:04N 01°17' E 104°00'0 0.8
2017-Dec-17 09:59N 01°17' E 104°00'1 1.8
2017-Dec-17 09:30N 01°16' E 103°60'1 2.0
2017-Dec-17 09:00N 01°16' E 103°59'2 3.0
2017-Dec-17 08:30N 01°15' E 104°00'5 8.9
2017-Dec-17 07:58N 01°16' E 104°05'  

Dump ship's entire track history